sensor_id;sensor_type;location;lat;lon;timestamp;P1;durP1;ratioP1;P2;durP2;ratioP2
31238;SDS011;17871;31.584;74.450;2022-12-18T00:00:31;377.15;;;175.00;;
31238;SDS011;17871;31.584;74.450;2022-12-18T00:03:01;374.83;;;174.27;;
31238;SDS011;17871;31.584;74.450;2022-12-18T00:05:31;374.85;;;173.68;;
31238;SDS011;17871;31.584;74.450;2022-12-18T00:08:01;378.17;;;172.70;;
31238;SDS011;17871;31.584;74.450;2022-12-18T00:10:36;392.30;;;173.30;;
31238;SDS011;17871;31.584;74.450;2022-12-18T00:13:06;392.58;;;181.70;;
31238;SDS011;17871;31.584;74.450;2022-12-18T00:15:37;411.80;;;191.75;;
31238;SDS011;17871;31.584;74.450;2022-12-18T00:18:08;425.55;;;193.38;;
31238;SDS011;17871;31.584;74.450;2022-12-18T00:20:42;432.98;;;200.10;;
31238;SDS011;17871;31.584;74.450;2022-12-18T00:23:12;452.48;;;205.02;;
31238;SDS011;17871;31.584;74.450;2022-12-18T00:25:41;463.55;;;216.50;;
31238;SDS011;17871;31.584;74.450;2022-12-18T00:28:10;487.25;;;233.60;;
31238;SDS011;17871;31.584;74.450;2022-12-18T00:30:40;499.63;;;233.68;;
31238;SDS011;17871;31.584;74.450;2022-12-18T00:33:10;504.98;;;237.50;;
31238;SDS011;17871;31.584;74.450;2022-12-18T00:35:39;519.90;;;247.68;;
31238;SDS011;17871;31.584;74.450;2022-12-18T00:38:09;564.30;;;266.42;;
31238;SDS011;17871;31.584;74.450;2022-12-18T00:40:39;574.67;;;270.25;;
31238;SDS011;17871;31.584;74.450;2022-12-18T00:43:08;533.30;;;246.02;;
31238;SDS011;17871;31.584;74.450;2022-12-18T00:45:38;480.17;;;225.73;;
31238;SDS011;17871;31.584;74.450;2022-12-18T00:48:09;467.23;;;213.40;;
31238;SDS011;17871;31.584;74.450;2022-12-18T00:50:39;454.77;;;208.70;;
31238;SDS011;17871;31.584;74.450;2022-12-18T00:53:08;444.35;;;204.20;;
31238;SDS011;17871;31.584;74.450;2022-12-18T00:55:41;473.20;;;208.88;;
31238;SDS011;17871;31.584;74.450;2022-12-18T00:58:12;438.58;;;200.40;;
31238;SDS011;17871;31.584;74.450;2022-12-18T01:00:43;448.35;;;202.75;;
31238;SDS011;17871;31.584;74.450;2022-12-18T01:03:16;458.08;;;208.88;;
31238;SDS011;17871;31.584;74.450;2022-12-18T01:05:47;475.00;;;216.57;;
31238;SDS011;17871;31.584;74.450;2022-12-18T01:08:19;452.30;;;208.05;;
31238;SDS011;17871;31.584;74.450;2022-12-18T01:10:52;475.33;;;208.82;;
31238;SDS011;17871;31.584;74.450;2022-12-18T01:13:26;463.75;;;210.80;;
31238;SDS011;17871;31.584;74.450;2022-12-18T01:15:57;463.55;;;206.35;;
31238;SDS011;17871;31.584;74.450;2022-12-18T01:18:28;457.52;;;210.07;;
31238;SDS011;17871;31.584;74.450;2022-12-18T01:20:58;444.83;;;207.00;;
31238;SDS011;17871;31.584;74.450;2022-12-18T01:23:29;450.63;;;203.98;;
31238;SDS011;17871;31.584;74.450;2022-12-18T01:26:10;435.10;;;197.02;;
31238;SDS011;17871;31.584;74.450;2022-12-18T01:28:42;440.80;;;204.57;;
31238;SDS011;17871;31.584;74.450;2022-12-18T01:31:22;414.98;;;195.27;;
31238;SDS011;17871;31.584;74.450;2022-12-18T01:33:56;455.52;;;196.52;;
31238;SDS011;17871;31.584;74.450;2022-12-18T01:38:59;409.35;;;191.55;;
31238;SDS011;17871;31.584;74.450;2022-12-18T01:41:32;418.05;;;195.35;;
31238;SDS011;17871;31.584;74.450;2022-12-18T01:50:19;436.65;;;202.82;;
31238;SDS011;17871;31.584;74.450;2022-12-18T01:53:14;451.02;;;210.25;;
31238;SDS011;17871;31.584;74.450;2022-12-18T01:55:46;488.83;;;226.45;;
31238;SDS011;17871;31.584;74.450;2022-12-18T01:58:21;485.63;;;227.95;;
31238;SDS011;17871;31.584;74.450;2022-12-18T02:01:09;496.00;;;236.52;;
31238;SDS011;17871;31.584;74.450;2022-12-18T02:03:41;514.45;;;249.93;;
31238;SDS011;17871;31.584;74.450;2022-12-18T02:06:22;481.00;;;234.38;;
31238;SDS011;17871;31.584;74.450;2022-12-18T02:17:33;551.00;;;262.08;;
31238;SDS011;17871;31.584;74.450;2022-12-18T02:22:59;541.85;;;266.15;;
31238;SDS011;17871;31.584;74.450;2022-12-18T02:28:36;549.42;;;272.60;;
31238;SDS011;17871;31.584;74.450;2022-12-18T02:31:13;543.60;;;269.05;;
31238;SDS011;17871;31.584;74.450;2022-12-18T02:33:49;551.85;;;265.63;;
31238;SDS011;17871;31.584;74.450;2022-12-18T02:36:26;543.78;;;261.77;;
31238;SDS011;17871;31.584;74.450;2022-12-18T02:38:59;528.35;;;260.42;;
31238;SDS011;17871;31.584;74.450;2022-12-18T02:41:31;516.60;;;255.85;;
31238;SDS011;17871;31.584;74.450;2022-12-18T02:44:06;534.60;;;263.35;;
31238;SDS011;17871;31.584;74.450;2022-12-18T02:46:48;545.63;;;268.38;;
31238;SDS011;17871;31.584;74.450;2022-12-18T02:59:02;483.23;;;237.85;;
31238;SDS011;17871;31.584;74.450;2022-12-18T03:04:40;570.42;;;279.45;;
31238;SDS011;17871;31.584;74.450;2022-12-18T03:07:27;542.33;;;269.52;;
31238;SDS011;17871;31.584;74.450;2022-12-18T03:10:11;565.72;;;280.10;;
31238;SDS011;17871;31.584;74.450;2022-12-18T03:12:58;552.55;;;276.63;;
31238;SDS011;17871;31.584;74.450;2022-12-18T03:15:55;534.35;;;272.48;;
31238;SDS011;17871;31.584;74.450;2022-12-18T03:18:36;546.28;;;276.73;;
31238;SDS011;17871;31.584;74.450;2022-12-18T03:21:34;552.33;;;269.95;;
31238;SDS011;17871;31.584;74.450;2022-12-18T03:24:10;538.30;;;267.38;;
31238;SDS011;17871;31.584;74.450;2022-12-18T03:26:43;527.10;;;267.67;;
31238;SDS011;17871;31.584;74.450;2022-12-18T03:29:19;520.38;;;263.60;;
31238;SDS011;17871;31.584;74.450;2022-12-18T03:31:55;493.23;;;256.25;;
31238;SDS011;17871;31.584;74.450;2022-12-18T03:34:33;496.20;;;253.30;;
31238;SDS011;17871;31.584;74.450;2022-12-18T03:37:08;503.98;;;258.45;;
31238;SDS011;17871;31.584;74.450;2022-12-18T03:39:40;501.13;;;252.37;;
31238;SDS011;17871;31.584;74.450;2022-12-18T03:42:14;497.83;;;257.15;;
31238;SDS011;17871;31.584;74.450;2022-12-18T03:56:11;512.67;;;263.08;;
31238;SDS011;17871;31.584;74.450;2022-12-18T03:58:45;512.33;;;272.92;;
31238;SDS011;17871;31.584;74.450;2022-12-18T04:01:22;486.75;;;259.75;;
31238;SDS011;17871;31.584;74.450;2022-12-18T04:03:58;485.15;;;254.88;;
31238;SDS011;17871;31.584;74.450;2022-12-18T04:06:34;466.88;;;241.40;;
31238;SDS011;17871;31.584;74.450;2022-12-18T04:09:07;442.23;;;228.07;;
31238;SDS011;17871;31.584;74.450;2022-12-18T04:11:42;459.83;;;239.73;;
31238;SDS011;17871;31.584;74.450;2022-12-18T04:16:49;448.58;;;228.60;;
31238;SDS011;17871;31.584;74.450;2022-12-18T04:19:28;445.77;;;230.65;;
31238;SDS011;17871;31.584;74.450;2022-12-18T04:21:59;459.45;;;239.68;;
31238;SDS011;17871;31.584;74.450;2022-12-18T04:24:36;496.52;;;257.38;;
31238;SDS011;17871;31.584;74.450;2022-12-18T04:27:17;485.73;;;267.90;;
31238;SDS011;17871;31.584;74.450;2022-12-18T04:32:19;478.52;;;250.20;;
31238;SDS011;17871;31.584;74.450;2022-12-18T04:34:50;520.50;;;274.08;;
31238;SDS011;17871;31.584;74.450;2022-12-18T04:37:22;523.30;;;285.15;;
31238;SDS011;17871;31.584;74.450;2022-12-18T04:39:52;525.53;;;279.42;;
31238;SDS011;17871;31.584;74.450;2022-12-18T04:42:31;523.78;;;277.75;;
31238;SDS011;17871;31.584;74.450;2022-12-18T04:45:01;509.05;;;280.08;;
31238;SDS011;17871;31.584;74.450;2022-12-18T04:47:32;491.52;;;266.63;;
31238;SDS011;17871;31.584;74.450;2022-12-18T04:50:03;510.42;;;260.75;;
31238;SDS011;17871;31.584;74.450;2022-12-18T04:52:34;497.40;;;263.02;;
31238;SDS011;17871;31.584;74.450;2022-12-18T04:55:04;503.20;;;264.20;;
31238;SDS011;17871;31.584;74.450;2022-12-18T04:57:35;516.13;;;272.90;;
31238;SDS011;17871;31.584;74.450;2022-12-18T05:00:06;541.20;;;285.23;;
31238;SDS011;17871;31.584;74.450;2022-12-18T05:02:37;563.25;;;296.88;;
31238;SDS011;17871;31.584;74.450;2022-12-18T05:05:07;566.78;;;305.65;;
31238;SDS011;17871;31.584;74.450;2022-12-18T05:07:38;540.85;;;288.33;;
31238;SDS011;17871;31.584;74.450;2022-12-18T05:10:09;489.50;;;261.25;;
31238;SDS011;17871;31.584;74.450;2022-12-18T05:12:39;500.85;;;260.77;;
31238;SDS011;17871;31.584;74.450;2022-12-18T05:15:28;523.05;;;263.75;;
31238;SDS011;17871;31.584;74.450;2022-12-18T05:18:00;513.28;;;259.98;;
31238;SDS011;17871;31.584;74.450;2022-12-18T05:20:31;502.02;;;254.98;;
31238;SDS011;17871;31.584;74.450;2022-12-18T05:23:01;503.95;;;264.92;;
31238;SDS011;17871;31.584;74.450;2022-12-18T05:25:33;502.48;;;255.23;;
31238;SDS011;17871;31.584;74.450;2022-12-18T05:28:04;484.15;;;248.18;;
31238;SDS011;17871;31.584;74.450;2022-12-18T05:30:36;492.90;;;251.15;;
31238;SDS011;17871;31.584;74.450;2022-12-18T05:35:38;474.13;;;224.70;;
31238;SDS011;17871;31.584;74.450;2022-12-18T05:38:07;464.48;;;227.80;;
31238;SDS011;17871;31.584;74.450;2022-12-18T05:40:37;456.10;;;219.38;;
31238;SDS011;17871;31.584;74.450;2022-12-18T05:43:12;457.25;;;217.13;;
31238;SDS011;17871;31.584;74.450;2022-12-18T05:45:48;450.40;;;222.90;;
31238;SDS011;17871;31.584;74.450;2022-12-18T05:48:19;430.33;;;199.63;;
31238;SDS011;17871;31.584;74.450;2022-12-18T05:50:50;421.80;;;196.90;;
31238;SDS011;17871;31.584;74.450;2022-12-18T05:53:20;411.65;;;194.95;;
31238;SDS011;17871;31.584;74.450;2022-12-18T05:55:50;418.25;;;195.30;;
31238;SDS011;17871;31.584;74.450;2022-12-18T05:58:20;441.48;;;200.45;;
31238;SDS011;17871;31.584;74.450;2022-12-18T06:00:49;419.80;;;196.70;;
31238;SDS011;17871;31.584;74.450;2022-12-18T06:03:19;412.85;;;189.77;;
31238;SDS011;17871;31.584;74.450;2022-12-18T06:05:49;411.73;;;182.68;;
31238;SDS011;17871;31.584;74.450;2022-12-18T06:08:19;391.38;;;179.88;;
31238;SDS011;17871;31.584;74.450;2022-12-18T06:10:52;393.35;;;183.60;;
31238;SDS011;17871;31.584;74.450;2022-12-18T06:13:22;388.88;;;177.48;;
31238;SDS011;17871;31.584;74.450;2022-12-18T06:15:52;390.50;;;177.73;;
31238;SDS011;17871;31.584;74.450;2022-12-18T06:18:23;388.20;;;175.55;;
31238;SDS011;17871;31.584;74.450;2022-12-18T06:20:58;390.00;;;173.93;;
31238;SDS011;17871;31.584;74.450;2022-12-18T06:23:29;377.10;;;176.32;;
31238;SDS011;17871;31.584;74.450;2022-12-18T06:26:04;398.02;;;177.73;;
31238;SDS011;17871;31.584;74.450;2022-12-18T06:28:40;377.48;;;174.55;;
31238;SDS011;17871;31.584;74.450;2022-12-18T06:31:10;374.10;;;169.05;;
31238;SDS011;17871;31.584;74.450;2022-12-18T06:33:41;355.25;;;167.82;;
31238;SDS011;17871;31.584;74.450;2022-12-18T06:36:12;371.48;;;173.05;;
31238;SDS011;17871;31.584;74.450;2022-12-18T06:41:18;359.48;;;163.25;;
31238;SDS011;17871;31.584;74.450;2022-12-18T06:43:50;376.23;;;169.50;;
31238;SDS011;17871;31.584;74.450;2022-12-18T06:46:26;354.48;;;162.13;;
31238;SDS011;17871;31.584;74.450;2022-12-18T06:48:58;370.50;;;168.35;;
31238;SDS011;17871;31.584;74.450;2022-12-18T06:51:29;372.60;;;166.75;;
31238;SDS011;17871;31.584;74.450;2022-12-18T06:54:01;379.42;;;164.60;;
31238;SDS011;17871;31.584;74.450;2022-12-18T06:56:32;369.60;;;163.47;;
31238;SDS011;17871;31.584;74.450;2022-12-18T06:59:04;362.27;;;162.48;;
31238;SDS011;17871;31.584;74.450;2022-12-18T07:01:34;352.08;;;163.80;;
31238;SDS011;17871;31.584;74.450;2022-12-18T07:04:04;398.67;;;175.55;;
31238;SDS011;17871;31.584;74.450;2022-12-18T07:06:34;365.75;;;171.30;;
31238;SDS011;17871;31.584;74.450;2022-12-18T07:09:06;368.27;;;169.13;;
31238;SDS011;17871;31.584;74.450;2022-12-18T07:11:35;356.83;;;164.60;;
31238;SDS011;17871;31.584;74.450;2022-12-18T07:14:05;342.83;;;159.25;;
31238;SDS011;17871;31.584;74.450;2022-12-18T07:16:35;351.15;;;155.52;;
31238;SDS011;17871;31.584;74.450;2022-12-18T07:19:04;360.13;;;164.63;;
31238;SDS011;17871;31.584;74.450;2022-12-18T07:21:34;343.55;;;160.98;;
31238;SDS011;17871;31.584;74.450;2022-12-18T07:24:04;342.58;;;153.50;;
31238;SDS011;17871;31.584;74.450;2022-12-18T07:26:34;305.30;;;149.25;;
31238;SDS011;17871;31.584;74.450;2022-12-18T07:29:04;325.63;;;148.23;;
31238;SDS011;17871;31.584;74.450;2022-12-18T07:31:33;318.33;;;145.27;;
31238;SDS011;17871;31.584;74.450;2022-12-18T07:34:03;312.60;;;141.77;;
31238;SDS011;17871;31.584;74.450;2022-12-18T07:36:33;305.15;;;138.73;;
31238;SDS011;17871;31.584;74.450;2022-12-18T07:39:02;312.13;;;143.35;;
31238;SDS011;17871;31.584;74.450;2022-12-18T07:41:32;312.92;;;134.60;;
31238;SDS011;17871;31.584;74.450;2022-12-18T07:44:11;291.60;;;139.73;;
31238;SDS011;17871;31.584;74.450;2022-12-18T07:46:41;297.90;;;139.10;;
31238;SDS011;17871;31.584;74.450;2022-12-18T07:49:11;286.65;;;137.20;;
31238;SDS011;17871;31.584;74.450;2022-12-18T07:51:40;298.63;;;141.57;;
31238;SDS011;17871;31.584;74.450;2022-12-18T07:54:10;292.95;;;137.98;;
31238;SDS011;17871;31.584;74.450;2022-12-18T07:56:40;258.45;;;127.55;;
31238;SDS011;17871;31.584;74.450;2022-12-18T07:59:09;285.85;;;128.23;;
31238;SDS011;17871;31.584;74.450;2022-12-18T08:01:39;276.98;;;128.82;;
31238;SDS011;17871;31.584;74.450;2022-12-18T08:04:09;281.05;;;132.95;;
31238;SDS011;17871;31.584;74.450;2022-12-18T08:06:39;269.98;;;126.55;;
31238;SDS011;17871;31.584;74.450;2022-12-18T08:09:14;279.50;;;124.28;;
31238;SDS011;17871;31.584;74.450;2022-12-18T08:11:43;255.80;;;119.57;;
31238;SDS011;17871;31.584;74.450;2022-12-18T08:14:13;232.93;;;115.55;;
31238;SDS011;17871;31.584;74.450;2022-12-18T08:16:42;235.82;;;109.55;;
31238;SDS011;17871;31.584;74.450;2022-12-18T08:19:12;213.20;;;104.53;;
31238;SDS011;17871;31.584;74.450;2022-12-18T08:21:42;222.82;;;109.65;;
31238;SDS011;17871;31.584;74.450;2022-12-18T08:24:12;224.35;;;107.15;;
31238;SDS011;17871;31.584;74.450;2022-12-18T08:26:41;234.75;;;117.03;;
31238;SDS011;17871;31.584;74.450;2022-12-18T08:29:31;231.20;;;111.07;;
31238;SDS011;17871;31.584;74.450;2022-12-18T08:32:02;230.70;;;105.65;;
31238;SDS011;17871;31.584;74.450;2022-12-18T08:34:31;241.57;;;103.35;;
31238;SDS011;17871;31.584;74.450;2022-12-18T08:37:01;250.93;;;107.45;;
31238;SDS011;17871;31.584;74.450;2022-12-18T08:39:31;217.60;;;103.13;;
31238;SDS011;17871;31.584;74.450;2022-12-18T08:42:00;209.43;;;99.25;;
31238;SDS011;17871;31.584;74.450;2022-12-18T08:44:48;215.43;;;108.00;;
31238;SDS011;17871;31.584;74.450;2022-12-18T08:47:18;233.10;;;102.97;;
31238;SDS011;17871;31.584;74.450;2022-12-18T08:49:47;229.13;;;105.80;;
31238;SDS011;17871;31.584;74.450;2022-12-18T08:52:17;231.00;;;108.57;;
31238;SDS011;17871;31.584;74.450;2022-12-18T08:54:47;206.38;;;104.13;;
31238;SDS011;17871;31.584;74.450;2022-12-18T08:57:16;227.75;;;106.20;;
31238;SDS011;17871;31.584;74.450;2022-12-18T08:59:46;221.90;;;105.97;;
31238;SDS011;17871;31.584;74.450;2022-12-18T09:02:16;230.23;;;109.88;;
31238;SDS011;17871;31.584;74.450;2022-12-18T09:04:47;228.65;;;110.50;;
31238;SDS011;17871;31.584;74.450;2022-12-18T09:07:23;220.35;;;104.70;;
31238;SDS011;17871;31.584;74.450;2022-12-18T09:09:53;218.38;;;107.28;;
31238;SDS011;17871;31.584;74.450;2022-12-18T09:12:23;220.48;;;106.85;;
31238;SDS011;17871;31.584;74.450;2022-12-18T09:14:53;222.50;;;106.18;;
31238;SDS011;17871;31.584;74.450;2022-12-18T09:19:55;193.55;;;88.95;;
31238;SDS011;17871;31.584;74.450;2022-12-18T09:22:24;194.32;;;89.30;;
31238;SDS011;17871;31.584;74.450;2022-12-18T09:24:54;184.52;;;88.72;;
31238;SDS011;17871;31.584;74.450;2022-12-18T09:27:24;186.98;;;86.88;;
31238;SDS011;17871;31.584;74.450;2022-12-18T09:29:53;189.57;;;89.10;;
31238;SDS011;17871;31.584;74.450;2022-12-18T09:32:24;212.15;;;91.13;;
31238;SDS011;17871;31.584;74.450;2022-12-18T09:34:53;178.43;;;88.93;;
31238;SDS011;17871;31.584;74.450;2022-12-18T09:37:23;193.07;;;89.18;;
31238;SDS011;17871;31.584;74.450;2022-12-18T09:39:52;193.23;;;92.68;;
31238;SDS011;17871;31.584;74.450;2022-12-18T09:42:22;202.50;;;93.13;;
31238;SDS011;17871;31.584;74.450;2022-12-18T09:44:52;188.93;;;94.75;;
31238;SDS011;17871;31.584;74.450;2022-12-18T09:47:24;198.85;;;95.93;;
31238;SDS011;17871;31.584;74.450;2022-12-18T09:50:02;179.25;;;86.00;;
31238;SDS011;17871;31.584;74.450;2022-12-18T09:52:45;167.52;;;85.68;;
31238;SDS011;17871;31.584;74.450;2022-12-18T10:00:39;170.88;;;81.07;;
31238;SDS011;17871;31.584;74.450;2022-12-18T10:03:13;186.23;;;84.80;;
31238;SDS011;17871;31.584;74.450;2022-12-18T10:08:43;160.50;;;79.70;;
31238;SDS011;17871;31.584;74.450;2022-12-18T10:23:10;167.48;;;78.35;;
31238;SDS011;17871;31.584;74.450;2022-12-18T10:26:06;178.83;;;80.27;;
31238;SDS011;17871;31.584;74.450;2022-12-18T10:28:40;185.70;;;82.07;;
31238;SDS011;17871;31.584;74.450;2022-12-18T10:31:17;177.27;;;84.13;;
31238;SDS011;17871;31.584;74.450;2022-12-18T10:33:55;177.02;;;78.35;;
31238;SDS011;17871;31.584;74.450;2022-12-18T10:38:59;155.57;;;71.95;;
31238;SDS011;17871;31.584;74.450;2022-12-18T10:41:45;168.95;;;73.97;;
31238;SDS011;17871;31.584;74.450;2022-12-18T10:44:18;158.57;;;73.15;;
31238;SDS011;17871;31.584;74.450;2022-12-18T10:47:02;160.02;;;72.53;;
31238;SDS011;17871;31.584;74.450;2022-12-18T10:49:38;151.80;;;70.72;;
31238;SDS011;17871;31.584;74.450;2022-12-18T10:54:52;150.75;;;67.35;;
31238;SDS011;17871;31.584;74.450;2022-12-18T11:02:56;163.85;;;71.88;;
31238;SDS011;17871;31.584;74.450;2022-12-18T11:05:30;161.35;;;74.03;;
31238;SDS011;17871;31.584;74.450;2022-12-18T11:08:02;147.80;;;70.10;;
31238;SDS011;17871;31.584;74.450;2022-12-18T11:10:38;153.57;;;71.18;;
31238;SDS011;17871;31.584;74.450;2022-12-18T11:13:15;150.27;;;70.00;;
31238;SDS011;17871;31.584;74.450;2022-12-18T11:15:45;150.77;;;70.95;;
31238;SDS011;17871;31.584;74.450;2022-12-18T11:18:24;164.15;;;73.38;;
31238;SDS011;17871;31.584;74.450;2022-12-18T11:21:07;171.85;;;71.18;;
31238;SDS011;17871;31.584;74.450;2022-12-18T11:23:45;162.23;;;72.07;;
31238;SDS011;17871;31.584;74.450;2022-12-18T11:26:15;154.05;;;70.10;;
31238;SDS011;17871;31.584;74.450;2022-12-18T11:28:47;153.00;;;72.60;;
31238;SDS011;17871;31.584;74.450;2022-12-18T11:33:59;154.85;;;72.50;;
31238;SDS011;17871;31.584;74.450;2022-12-18T11:36:57;147.90;;;70.25;;
31238;SDS011;17871;31.584;74.450;2022-12-18T11:39:34;154.63;;;72.47;;
31238;SDS011;17871;31.584;74.450;2022-12-18T11:42:20;163.63;;;72.85;;
31238;SDS011;17871;31.584;74.450;2022-12-18T11:44:59;170.63;;;72.57;;
31238;SDS011;17871;31.584;74.450;2022-12-18T11:50:24;155.90;;;71.10;;
31238;SDS011;17871;31.584;74.450;2022-12-18T11:52:57;166.15;;;74.65;;
31238;SDS011;17871;31.584;74.450;2022-12-18T11:58:24;163.73;;;74.78;;
31238;SDS011;17871;31.584;74.450;2022-12-18T12:01:50;165.32;;;76.82;;
31238;SDS011;17871;31.584;74.450;2022-12-18T12:04:15;170.35;;;77.15;;
31238;SDS011;17871;31.584;74.450;2022-12-18T12:21:22;186.55;;;86.22;;
31238;SDS011;17871;31.584;74.450;2022-12-18T12:27:20;201.25;;;85.57;;
31238;SDS011;17871;31.584;74.450;2022-12-18T12:30:16;193.20;;;85.47;;
31238;SDS011;17871;31.584;74.450;2022-12-18T12:33:07;219.73;;;91.28;;
31238;SDS011;17871;31.584;74.450;2022-12-18T12:36:01;202.65;;;90.88;;
31238;SDS011;17871;31.584;74.450;2022-12-18T12:38:43;201.68;;;89.25;;
31238;SDS011;17871;31.584;74.450;2022-12-18T12:41:30;223.95;;;92.97;;
31238;SDS011;17871;31.584;74.450;2022-12-18T12:44:24;202.77;;;93.07;;
31238;SDS011;17871;31.584;74.450;2022-12-18T12:46:57;226.52;;;94.25;;
31238;SDS011;17871;31.584;74.450;2022-12-18T12:49:32;223.10;;;100.45;;
31238;SDS011;17871;31.584;74.450;2022-12-18T12:52:40;244.82;;;101.47;;
31238;SDS011;17871;31.584;74.450;2022-12-18T12:55:05;237.57;;;104.20;;
31238;SDS011;17871;31.584;74.450;2022-12-18T12:57:51;274.83;;;109.47;;
31238;SDS011;17871;31.584;74.450;2022-12-18T13:00:39;263.38;;;111.68;;
31238;SDS011;17871;31.584;74.450;2022-12-18T13:04:18;262.35;;;112.72;;
31238;SDS011;17871;31.584;74.450;2022-12-18T13:09:23;262.38;;;113.47;;
31238;SDS011;17871;31.584;74.450;2022-12-18T13:11:52;255.25;;;112.90;;
31238;SDS011;17871;31.584;74.450;2022-12-18T13:14:48;264.48;;;112.10;;
31238;SDS011;17871;31.584;74.450;2022-12-18T13:20:04;247.07;;;110.68;;
31238;SDS011;17871;31.584;74.450;2022-12-18T13:22:46;247.45;;;109.78;;
31238;SDS011;17871;31.584;74.450;2022-12-18T13:28:09;250.82;;;108.95;;
31238;SDS011;17871;31.584;74.450;2022-12-18T13:30:42;267.65;;;113.88;;
31238;SDS011;17871;31.584;74.450;2022-12-18T13:36:03;260.40;;;115.38;;
31238;SDS011;17871;31.584;74.450;2022-12-18T13:38:46;255.43;;;115.35;;
31238;SDS011;17871;31.584;74.450;2022-12-18T13:43:57;273.48;;;122.50;;
31238;SDS011;17871;31.584;74.450;2022-12-18T13:49:22;274.88;;;122.88;;
31238;SDS011;17871;31.584;74.450;2022-12-18T13:52:21;267.08;;;124.43;;
31238;SDS011;17871;31.584;74.450;2022-12-18T13:54:53;290.58;;;130.63;;
31238;SDS011;17871;31.584;74.450;2022-12-18T13:57:26;288.48;;;129.50;;
31238;SDS011;17871;31.584;74.450;2022-12-18T13:59:58;296.92;;;129.90;;
31238;SDS011;17871;31.584;74.450;2022-12-18T14:02:48;288.27;;;128.77;;
31238;SDS011;17871;31.584;74.450;2022-12-18T14:05:26;277.08;;;124.63;;
31238;SDS011;17871;31.584;74.450;2022-12-18T14:08:05;287.35;;;126.32;;
31238;SDS011;17871;31.584;74.450;2022-12-18T14:10:45;298.27;;;126.05;;
31238;SDS011;17871;31.584;74.450;2022-12-18T14:13:33;274.27;;;123.47;;
31238;SDS011;17871;31.584;74.450;2022-12-18T14:16:11;285.50;;;126.13;;
31238;SDS011;17871;31.584;74.450;2022-12-18T14:18:54;278.40;;;123.00;;
31238;SDS011;17871;31.584;74.450;2022-12-18T14:21:44;276.77;;;123.85;;
31238;SDS011;17871;31.584;74.450;2022-12-18T14:24:17;285.63;;;120.78;;
31238;SDS011;17871;31.584;74.450;2022-12-18T14:26:49;259.55;;;122.38;;
31238;SDS011;17871;31.584;74.450;2022-12-18T14:29:27;270.55;;;123.78;;
31238;SDS011;17871;31.584;74.450;2022-12-18T14:32:11;256.70;;;123.25;;
31238;SDS011;17871;31.584;74.450;2022-12-18T14:34:52;288.60;;;124.15;;
31238;SDS011;17871;31.584;74.450;2022-12-18T14:37:25;284.27;;;124.97;;
31238;SDS011;17871;31.584;74.450;2022-12-18T14:40:00;257.17;;;121.78;;
31238;SDS011;17871;31.584;74.450;2022-12-18T14:42:37;260.45;;;122.28;;
31238;SDS011;17871;31.584;74.450;2022-12-18T14:50:57;270.95;;;125.20;;
31238;SDS011;17871;31.584;74.450;2022-12-18T14:53:35;285.30;;;127.65;;
31238;SDS011;17871;31.584;74.450;2022-12-18T14:56:24;279.70;;;128.63;;
31238;SDS011;17871;31.584;74.450;2022-12-18T14:58:59;261.05;;;130.18;;
31238;SDS011;17871;31.584;74.450;2022-12-18T15:01:36;285.75;;;128.23;;
31238;SDS011;17871;31.584;74.450;2022-12-18T15:04:24;288.65;;;132.48;;
31238;SDS011;17871;31.584;74.450;2022-12-18T15:12:47;292.73;;;130.02;;
31238;SDS011;17871;31.584;74.450;2022-12-18T15:31:24;276.02;;;128.82;;
31238;SDS011;17871;31.584;74.450;2022-12-18T15:34:10;289.98;;;134.73;;
31238;SDS011;17871;31.584;74.450;2022-12-18T15:36:47;276.35;;;127.43;;
31238;SDS011;17871;31.584;74.450;2022-12-18T15:41:50;287.00;;;127.07;;
31238;SDS011;17871;31.584;74.450;2022-12-18T15:44:38;282.65;;;130.15;;
31238;SDS011;17871;31.584;74.450;2022-12-18T15:47:14;291.95;;;130.95;;
31238;SDS011;17871;31.584;74.450;2022-12-18T15:49:44;278.92;;;130.27;;
31238;SDS011;17871;31.584;74.450;2022-12-18T15:52:18;285.25;;;133.73;;
31238;SDS011;17871;31.584;74.450;2022-12-18T15:54:55;312.35;;;133.18;;
31238;SDS011;17871;31.584;74.450;2022-12-18T15:57:46;297.67;;;136.85;;
31238;SDS011;17871;31.584;74.450;2022-12-18T16:00:18;283.25;;;133.70;;
31238;SDS011;17871;31.584;74.450;2022-12-18T16:02:50;288.57;;;133.17;;
31238;SDS011;17871;31.584;74.450;2022-12-18T16:05:21;317.02;;;136.77;;
31238;SDS011;17871;31.584;74.450;2022-12-18T16:07:53;311.92;;;140.98;;
31238;SDS011;17871;31.584;74.450;2022-12-18T16:10:24;308.27;;;143.63;;
31238;SDS011;17871;31.584;74.450;2022-12-18T16:12:56;309.58;;;142.50;;
31238;SDS011;17871;31.584;74.450;2022-12-18T16:15:28;306.00;;;143.88;;
31238;SDS011;17871;31.584;74.450;2022-12-18T16:18:01;296.83;;;140.02;;
31238;SDS011;17871;31.584;74.450;2022-12-18T16:20:35;321.48;;;149.70;;
31238;SDS011;17871;31.584;74.450;2022-12-18T16:23:09;305.25;;;151.73;;
31238;SDS011;17871;31.584;74.450;2022-12-18T16:28:14;316.67;;;139.82;;
31238;SDS011;17871;31.584;74.450;2022-12-18T16:30:52;357.92;;;157.90;;
31238;SDS011;17871;31.584;74.450;2022-12-18T16:33:22;403.65;;;180.27;;
31238;SDS011;17871;31.584;74.450;2022-12-18T16:35:54;433.83;;;196.00;;
31238;SDS011;17871;31.584;74.450;2022-12-18T16:38:24;419.42;;;196.23;;
31238;SDS011;17871;31.584;74.450;2022-12-18T16:40:57;393.05;;;175.55;;
31238;SDS011;17871;31.584;74.450;2022-12-18T16:43:46;342.45;;;158.13;;
31238;SDS011;17871;31.584;74.450;2022-12-18T16:46:22;307.90;;;148.30;;
31238;SDS011;17871;31.584;74.450;2022-12-18T16:48:57;360.02;;;163.05;;
31238;SDS011;17871;31.584;74.450;2022-12-18T16:51:28;352.73;;;161.68;;
31238;SDS011;17871;31.584;74.450;2022-12-18T16:53:59;341.38;;;152.40;;
31238;SDS011;17871;31.584;74.450;2022-12-18T16:56:37;331.55;;;149.63;;
31238;SDS011;17871;31.584;74.450;2022-12-18T16:59:11;323.23;;;148.20;;
31238;SDS011;17871;31.584;74.450;2022-12-18T17:01:43;342.25;;;153.60;;
31238;SDS011;17871;31.584;74.450;2022-12-18T17:04:14;328.15;;;149.18;;
31238;SDS011;17871;31.584;74.450;2022-12-18T17:06:48;359.58;;;161.68;;
31238;SDS011;17871;31.584;74.450;2022-12-18T17:09:20;371.20;;;165.75;;
31238;SDS011;17871;31.584;74.450;2022-12-18T17:11:55;340.08;;;157.07;;
31238;SDS011;17871;31.584;74.450;2022-12-18T17:14:32;333.67;;;153.15;;